sensor_id;sensor_type;location;lat;lon;timestamp;P1;durP1;ratioP1;P2;durP2;ratioP2
15655;SDS011;7928;43.614;1.456;2023-03-23T00:00:53;3.17;;;1.70;;
15655;SDS011;7928;43.614;1.456;2023-03-23T00:03:21;3.97;;;1.60;;
15655;SDS011;7928;43.614;1.456;2023-03-23T00:05:50;4.60;;;1.50;;
15655;SDS011;7928;43.614;1.456;2023-03-23T00:08:18;3.43;;;1.73;;
15655;SDS011;7928;43.614;1.456;2023-03-23T00:10:50;1.93;;;1.20;;
15655;SDS011;7928;43.614;1.456;2023-03-23T00:13:17;2.00;;;1.60;;
15655;SDS011;7928;43.614;1.456;2023-03-23T00:15:46;2.67;;;1.80;;
15655;SDS011;7928;43.614;1.456;2023-03-23T00:18:17;3.87;;;1.70;;
15655;SDS011;7928;43.614;1.456;2023-03-23T00:20:47;4.07;;;1.97;;
15655;SDS011;7928;43.614;1.456;2023-03-23T00:23:15;2.40;;;1.83;;
15655;SDS011;7928;43.614;1.456;2023-03-23T00:25:45;5.10;;;2.00;;
15655;SDS011;7928;43.614;1.456;2023-03-23T00:28:13;2.77;;;1.90;;
15655;SDS011;7928;43.614;1.456;2023-03-23T00:30:41;3.30;;;2.10;;
15655;SDS011;7928;43.614;1.456;2023-03-23T00:33:11;5.07;;;1.90;;
15655;SDS011;7928;43.614;1.456;2023-03-23T00:35:39;3.30;;;2.10;;
15655;SDS011;7928;43.614;1.456;2023-03-23T00:38:06;8.80;;;2.23;;
15655;SDS011;7928;43.614;1.456;2023-03-23T00:40:34;4.00;;;2.30;;
15655;SDS011;7928;43.614;1.456;2023-03-23T00:43:02;3.70;;;2.40;;
15655;SDS011;7928;43.614;1.456;2023-03-23T00:45:30;3.43;;;2.50;;
15655;SDS011;7928;43.614;1.456;2023-03-23T00:47:59;4.27;;;2.57;;
15655;SDS011;7928;43.614;1.456;2023-03-23T00:50:30;4.73;;;2.70;;
15655;SDS011;7928;43.614;1.456;2023-03-23T00:52:58;4.57;;;2.77;;
15655;SDS011;7928;43.614;1.456;2023-03-23T00:55:25;6.23;;;3.87;;
15655;SDS011;7928;43.614;1.456;2023-03-23T00:57:52;6.60;;;3.90;;
15655;SDS011;7928;43.614;1.456;2023-03-23T01:00:19;4.33;;;3.20;;
15655;SDS011;7928;43.614;1.456;2023-03-23T01:02:47;4.97;;;3.77;;
15655;SDS011;7928;43.614;1.456;2023-03-23T01:05:16;5.83;;;3.60;;
15655;SDS011;7928;43.614;1.456;2023-03-23T01:07:45;5.50;;;4.07;;
15655;SDS011;7928;43.614;1.456;2023-03-23T01:10:14;6.23;;;4.03;;
15655;SDS011;7928;43.614;1.456;2023-03-23T01:12:43;5.17;;;4.37;;
15655;SDS011;7928;43.614;1.456;2023-03-23T01:15:14;6.27;;;4.13;;
15655;SDS011;7928;43.614;1.456;2023-03-23T01:17:42;7.37;;;4.20;;
15655;SDS011;7928;43.614;1.456;2023-03-23T01:20:10;5.30;;;4.80;;
15655;SDS011;7928;43.614;1.456;2023-03-23T01:22:38;5.97;;;4.97;;
15655;SDS011;7928;43.614;1.456;2023-03-23T01:25:08;6.50;;;5.37;;
15655;SDS011;7928;43.614;1.456;2023-03-23T01:27:36;8.33;;;5.17;;
15655;SDS011;7928;43.614;1.456;2023-03-23T01:30:03;7.37;;;5.77;;
15655;SDS011;7928;43.614;1.456;2023-03-23T01:32:31;7.30;;;5.70;;
15655;SDS011;7928;43.614;1.456;2023-03-23T01:34:58;7.90;;;6.50;;
15655;SDS011;7928;43.614;1.456;2023-03-23T01:37:25;9.87;;;6.03;;
15655;SDS011;7928;43.614;1.456;2023-03-23T01:39:52;8.20;;;6.70;;
15655;SDS011;7928;43.614;1.456;2023-03-23T01:42:22;10.50;;;6.97;;
15655;SDS011;7928;43.614;1.456;2023-03-23T01:47:51;8.27;;;6.83;;
15655;SDS011;7928;43.614;1.456;2023-03-23T01:50:25;9.40;;;7.90;;
15655;SDS011;7928;43.614;1.456;2023-03-23T01:52:55;10.73;;;7.33;;
15655;SDS011;7928;43.614;1.456;2023-03-23T01:55:24;8.43;;;7.10;;
15655;SDS011;7928;43.614;1.456;2023-03-23T01:57:55;10.87;;;8.17;;
15655;SDS011;7928;43.614;1.456;2023-03-23T02:00:22;9.30;;;8.03;;
15655;SDS011;7928;43.614;1.456;2023-03-23T02:02:51;13.60;;;8.00;;
15655;SDS011;7928;43.614;1.456;2023-03-23T02:05:21;11.83;;;8.10;;
15655;SDS011;7928;43.614;1.456;2023-03-23T02:07:54;11.07;;;8.13;;
15655;SDS011;7928;43.614;1.456;2023-03-23T02:10:27;12.80;;;8.97;;
15655;SDS011;7928;43.614;1.456;2023-03-23T02:12:56;10.20;;;8.70;;
15655;SDS011;7928;43.614;1.456;2023-03-23T02:15:24;11.97;;;7.83;;
15655;SDS011;7928;43.614;1.456;2023-03-23T02:17:56;10.97;;;8.50;;
15655;SDS011;7928;43.614;1.456;2023-03-23T02:20:33;11.40;;;8.60;;
15655;SDS011;7928;43.614;1.456;2023-03-23T02:26:11;9.57;;;8.50;;
15655;SDS011;7928;43.614;1.456;2023-03-23T02:28:57;16.70;;;9.50;;
15655;SDS011;7928;43.614;1.456;2023-03-23T02:31:44;17.23;;;9.37;;
15655;SDS011;7928;43.614;1.456;2023-03-23T02:34:24;11.30;;;8.70;;
15655;SDS011;7928;43.614;1.456;2023-03-23T02:36:56;12.47;;;9.80;;
15655;SDS011;7928;43.614;1.456;2023-03-23T02:39:28;14.20;;;9.67;;
15655;SDS011;7928;43.614;1.456;2023-03-23T02:41:58;13.17;;;8.93;;
15655;SDS011;7928;43.614;1.456;2023-03-23T02:44:29;14.50;;;9.13;;
15655;SDS011;7928;43.614;1.456;2023-03-23T02:46:57;12.50;;;8.30;;
15655;SDS011;7928;43.614;1.456;2023-03-23T02:49:28;11.90;;;9.17;;
15655;SDS011;7928;43.614;1.456;2023-03-23T02:51:57;11.23;;;9.17;;
15655;SDS011;7928;43.614;1.456;2023-03-23T02:54:26;16.47;;;9.53;;
15655;SDS011;7928;43.614;1.456;2023-03-23T02:56:53;12.70;;;8.97;;
15655;SDS011;7928;43.614;1.456;2023-03-23T02:59:22;11.20;;;8.50;;
15655;SDS011;7928;43.614;1.456;2023-03-23T03:02:00;10.37;;;8.63;;
15655;SDS011;7928;43.614;1.456;2023-03-23T03:04:32;12.63;;;8.60;;
15655;SDS011;7928;43.614;1.456;2023-03-23T03:10:03;16.63;;;9.00;;
15655;SDS011;7928;43.614;1.456;2023-03-23T03:12:39;11.57;;;8.93;;
15655;SDS011;7928;43.614;1.456;2023-03-23T03:15:14;12.43;;;8.87;;
15655;SDS011;7928;43.614;1.456;2023-03-23T03:17:47;17.00;;;10.13;;
15655;SDS011;7928;43.614;1.456;2023-03-23T03:20:21;13.80;;;9.23;;
15655;SDS011;7928;43.614;1.456;2023-03-23T03:22:51;14.27;;;9.10;;
15655;SDS011;7928;43.614;1.456;2023-03-23T03:25:20;17.60;;;8.87;;
15655;SDS011;7928;43.614;1.456;2023-03-23T03:27:48;11.80;;;9.40;;
15655;SDS011;7928;43.614;1.456;2023-03-23T03:30:17;12.40;;;9.40;;
15655;SDS011;7928;43.614;1.456;2023-03-23T03:32:50;10.73;;;8.23;;
15655;SDS011;7928;43.614;1.456;2023-03-23T03:35:21;11.23;;;8.07;;
15655;SDS011;7928;43.614;1.456;2023-03-23T03:37:49;12.63;;;9.13;;
15655;SDS011;7928;43.614;1.456;2023-03-23T03:40:18;11.37;;;8.47;;
15655;SDS011;7928;43.614;1.456;2023-03-23T03:42:47;10.00;;;8.37;;
15655;SDS011;7928;43.614;1.456;2023-03-23T03:45:15;9.50;;;8.47;;
15655;SDS011;7928;43.614;1.456;2023-03-23T03:47:43;10.60;;;7.60;;
15655;SDS011;7928;43.614;1.456;2023-03-23T03:50:11;9.50;;;6.97;;
15655;SDS011;7928;43.614;1.456;2023-03-23T03:52:39;10.90;;;8.07;;
15655;SDS011;7928;43.614;1.456;2023-03-23T03:55:07;11.73;;;7.97;;
15655;SDS011;7928;43.614;1.456;2023-03-23T03:57:35;9.50;;;7.47;;
15655;SDS011;7928;43.614;1.456;2023-03-23T04:00:05;11.73;;;7.80;;
15655;SDS011;7928;43.614;1.456;2023-03-23T04:02:39;10.67;;;7.40;;
15655;SDS011;7928;43.614;1.456;2023-03-23T04:05:08;11.40;;;7.20;;
15655;SDS011;7928;43.614;1.456;2023-03-23T04:07:36;11.03;;;7.07;;
15655;SDS011;7928;43.614;1.456;2023-03-23T04:10:06;12.47;;;7.97;;
15655;SDS011;7928;43.614;1.456;2023-03-23T04:12:34;9.53;;;7.23;;
15655;SDS011;7928;43.614;1.456;2023-03-23T04:15:02;9.33;;;7.23;;
15655;SDS011;7928;43.614;1.456;2023-03-23T04:17:29;12.83;;;8.03;;
15655;SDS011;7928;43.614;1.456;2023-03-23T04:19:56;11.00;;;7.60;;
15655;SDS011;7928;43.614;1.456;2023-03-23T04:22:25;11.17;;;7.47;;
15655;SDS011;7928;43.614;1.456;2023-03-23T04:24:55;9.83;;;7.23;;
15655;SDS011;7928;43.614;1.456;2023-03-23T04:27:26;11.40;;;7.73;;
15655;SDS011;7928;43.614;1.456;2023-03-23T04:29:54;9.93;;;7.73;;
15655;SDS011;7928;43.614;1.456;2023-03-23T04:32:23;16.23;;;8.50;;
15655;SDS011;7928;43.614;1.456;2023-03-23T04:34:54;12.23;;;7.93;;
15655;SDS011;7928;43.614;1.456;2023-03-23T04:37:23;12.20;;;8.77;;
15655;SDS011;7928;43.614;1.456;2023-03-23T04:39:53;14.27;;;9.30;;
15655;SDS011;7928;43.614;1.456;2023-03-23T04:42:26;11.17;;;8.33;;
15655;SDS011;7928;43.614;1.456;2023-03-23T04:44:54;14.40;;;8.67;;
15655;SDS011;7928;43.614;1.456;2023-03-23T04:47:22;12.50;;;9.97;;
15655;SDS011;7928;43.614;1.456;2023-03-23T04:49:50;11.10;;;8.83;;
15655;SDS011;7928;43.614;1.456;2023-03-23T04:52:17;12.03;;;9.50;;
15655;SDS011;7928;43.614;1.456;2023-03-23T04:54:45;11.87;;;8.77;;
15655;SDS011;7928;43.614;1.456;2023-03-23T04:57:12;13.77;;;8.80;;
15655;SDS011;7928;43.614;1.456;2023-03-23T04:59:42;13.90;;;9.50;;
15655;SDS011;7928;43.614;1.456;2023-03-23T05:02:09;10.93;;;9.07;;
15655;SDS011;7928;43.614;1.456;2023-03-23T05:04:38;14.37;;;9.87;;
15655;SDS011;7928;43.614;1.456;2023-03-23T05:07:05;15.93;;;9.77;;
15655;SDS011;7928;43.614;1.456;2023-03-23T05:09:33;12.17;;;9.80;;
15655;SDS011;7928;43.614;1.456;2023-03-23T05:12:03;13.47;;;10.00;;
15655;SDS011;7928;43.614;1.456;2023-03-23T05:14:31;11.40;;;9.50;;
15655;SDS011;7928;43.614;1.456;2023-03-23T05:16:59;13.67;;;10.43;;
15655;SDS011;7928;43.614;1.456;2023-03-23T05:19:27;10.87;;;9.77;;
15655;SDS011;7928;43.614;1.456;2023-03-23T05:21:56;14.43;;;9.33;;
15655;SDS011;7928;43.614;1.456;2023-03-23T05:24:28;16.47;;;10.27;;
15655;SDS011;7928;43.614;1.456;2023-03-23T05:26:57;10.60;;;8.70;;
15655;SDS011;7928;43.614;1.456;2023-03-23T05:29:25;11.73;;;9.30;;
15655;SDS011;7928;43.614;1.456;2023-03-23T05:31:55;11.97;;;9.50;;
15655;SDS011;7928;43.614;1.456;2023-03-23T05:34:26;13.93;;;9.87;;
15655;SDS011;7928;43.614;1.456;2023-03-23T05:36:53;14.73;;;9.97;;
15655;SDS011;7928;43.614;1.456;2023-03-23T05:39:22;15.30;;;9.10;;
15655;SDS011;7928;43.614;1.456;2023-03-23T05:41:49;13.43;;;9.90;;
15655;SDS011;7928;43.614;1.456;2023-03-23T05:44:16;12.93;;;8.93;;
15655;SDS011;7928;43.614;1.456;2023-03-23T05:46:44;13.87;;;9.17;;
15655;SDS011;7928;43.614;1.456;2023-03-23T05:49:11;11.93;;;9.40;;
15655;SDS011;7928;43.614;1.456;2023-03-23T05:51:40;14.90;;;10.13;;
15655;SDS011;7928;43.614;1.456;2023-03-23T05:54:07;17.67;;;10.67;;
15655;SDS011;7928;43.614;1.456;2023-03-23T05:56:35;14.60;;;9.50;;
15655;SDS011;7928;43.614;1.456;2023-03-23T05:59:02;18.17;;;11.07;;
15655;SDS011;7928;43.614;1.456;2023-03-23T06:01:29;16.27;;;10.47;;
15655;SDS011;7928;43.614;1.456;2023-03-23T06:03:57;16.20;;;9.87;;
15655;SDS011;7928;43.614;1.456;2023-03-23T06:06:24;13.50;;;11.23;;
15655;SDS011;7928;43.614;1.456;2023-03-23T06:08:53;13.37;;;10.63;;
15655;SDS011;7928;43.614;1.456;2023-03-23T06:11:20;19.70;;;11.50;;
15655;SDS011;7928;43.614;1.456;2023-03-23T06:13:47;11.93;;;9.57;;
15655;SDS011;7928;43.614;1.456;2023-03-23T06:16:14;13.93;;;10.17;;
15655;SDS011;7928;43.614;1.456;2023-03-23T06:18:41;12.50;;;10.23;;
15655;SDS011;7928;43.614;1.456;2023-03-23T06:21:09;14.63;;;9.43;;
15655;SDS011;7928;43.614;1.456;2023-03-23T06:23:36;14.87;;;10.03;;
15655;SDS011;7928;43.614;1.456;2023-03-23T06:26:05;14.40;;;10.27;;
15655;SDS011;7928;43.614;1.456;2023-03-23T06:28:33;11.73;;;9.60;;
15655;SDS011;7928;43.614;1.456;2023-03-23T06:31:01;14.80;;;10.57;;
15655;SDS011;7928;43.614;1.456;2023-03-23T06:33:31;15.43;;;10.13;;
15655;SDS011;7928;43.614;1.456;2023-03-23T06:35:59;15.73;;;10.50;;
15655;SDS011;7928;43.614;1.456;2023-03-23T06:38:26;11.37;;;9.73;;
15655;SDS011;7928;43.614;1.456;2023-03-23T06:40:53;15.67;;;10.37;;
15655;SDS011;7928;43.614;1.456;2023-03-23T06:43:21;12.53;;;10.13;;
15655;SDS011;7928;43.614;1.456;2023-03-23T06:45:49;14.20;;;10.07;;
15655;SDS011;7928;43.614;1.456;2023-03-23T06:48:17;13.73;;;9.33;;
15655;SDS011;7928;43.614;1.456;2023-03-23T06:50:44;12.37;;;9.03;;
15655;SDS011;7928;43.614;1.456;2023-03-23T06:53:12;17.57;;;9.93;;
15655;SDS011;7928;43.614;1.456;2023-03-23T06:55:42;12.53;;;9.37;;
15655;SDS011;7928;43.614;1.456;2023-03-23T06:58:09;16.30;;;8.77;;
15655;SDS011;7928;43.614;1.456;2023-03-23T07:00:37;10.97;;;8.50;;
15655;SDS011;7928;43.614;1.456;2023-03-23T07:03:05;13.97;;;8.73;;
15655;SDS011;7928;43.614;1.456;2023-03-23T07:05:33;8.67;;;7.77;;
15655;SDS011;7928;43.614;1.456;2023-03-23T07:08:01;8.27;;;7.43;;
15655;SDS011;7928;43.614;1.456;2023-03-23T07:10:29;9.60;;;7.97;;
15655;SDS011;7928;43.614;1.456;2023-03-23T07:12:56;9.60;;;7.13;;
15655;SDS011;7928;43.614;1.456;2023-03-23T07:15:24;10.87;;;8.33;;
15655;SDS011;7928;43.614;1.456;2023-03-23T07:17:53;12.63;;;7.57;;
15655;SDS011;7928;43.614;1.456;2023-03-23T07:20:20;14.47;;;8.00;;
15655;SDS011;7928;43.614;1.456;2023-03-23T07:22:47;11.40;;;7.87;;
15655;SDS011;7928;43.614;1.456;2023-03-23T07:25:15;10.43;;;7.90;;
15655;SDS011;7928;43.614;1.456;2023-03-23T07:27:43;10.13;;;7.67;;
15655;SDS011;7928;43.614;1.456;2023-03-23T07:30:11;11.77;;;8.27;;
15655;SDS011;7928;43.614;1.456;2023-03-23T07:32:39;12.17;;;9.23;;
15655;SDS011;7928;43.614;1.456;2023-03-23T07:35:08;11.53;;;8.20;;
15655;SDS011;7928;43.614;1.456;2023-03-23T07:37:36;9.87;;;7.43;;
15655;SDS011;7928;43.614;1.456;2023-03-23T07:40:03;10.03;;;8.53;;
15655;SDS011;7928;43.614;1.456;2023-03-23T07:42:40;11.27;;;8.07;;
15655;SDS011;7928;43.614;1.456;2023-03-23T07:45:08;14.10;;;8.40;;
15655;SDS011;7928;43.614;1.456;2023-03-23T07:47:36;11.77;;;8.53;;
15655;SDS011;7928;43.614;1.456;2023-03-23T07:50:04;13.87;;;8.83;;
15655;SDS011;7928;43.614;1.456;2023-03-23T07:52:33;15.33;;;9.00;;
15655;SDS011;7928;43.614;1.456;2023-03-23T07:55:01;13.30;;;7.77;;
15655;SDS011;7928;43.614;1.456;2023-03-23T07:57:28;11.50;;;8.20;;
15655;SDS011;7928;43.614;1.456;2023-03-23T07:59:55;13.23;;;8.30;;
15655;SDS011;7928;43.614;1.456;2023-03-23T08:02:23;10.80;;;8.90;;
15655;SDS011;7928;43.614;1.456;2023-03-23T08:04:51;11.27;;;8.30;;
15655;SDS011;7928;43.614;1.456;2023-03-23T08:07:19;11.37;;;8.87;;
15655;SDS011;7928;43.614;1.456;2023-03-23T08:09:47;13.50;;;8.07;;
15655;SDS011;7928;43.614;1.456;2023-03-23T08:12:14;13.57;;;8.07;;
15655;SDS011;7928;43.614;1.456;2023-03-23T08:14:42;10.23;;;8.07;;
15655;SDS011;7928;43.614;1.456;2023-03-23T08:17:09;11.03;;;8.63;;
15655;SDS011;7928;43.614;1.456;2023-03-23T08:19:36;9.43;;;7.97;;
15655;SDS011;7928;43.614;1.456;2023-03-23T08:22:03;9.07;;;7.60;;
15655;SDS011;7928;43.614;1.456;2023-03-23T08:24:30;9.83;;;8.30;;
15655;SDS011;7928;43.614;1.456;2023-03-23T08:26:59;9.33;;;7.43;;
15655;SDS011;7928;43.614;1.456;2023-03-23T08:29:26;9.10;;;7.70;;
15655;SDS011;7928;43.614;1.456;2023-03-23T08:31:53;13.10;;;8.07;;
15655;SDS011;7928;43.614;1.456;2023-03-23T08:34:20;9.23;;;7.50;;
15655;SDS011;7928;43.614;1.456;2023-03-23T08:36:47;10.20;;;8.50;;
15655;SDS011;7928;43.614;1.456;2023-03-23T08:39:16;10.80;;;8.17;;
15655;SDS011;7928;43.614;1.456;2023-03-23T08:41:44;9.33;;;6.90;;
15655;SDS011;7928;43.614;1.456;2023-03-23T08:44:12;9.93;;;6.90;;
15655;SDS011;7928;43.614;1.456;2023-03-23T08:46:39;8.90;;;6.97;;
15655;SDS011;7928;43.614;1.456;2023-03-23T08:49:06;9.97;;;7.33;;
15655;SDS011;7928;43.614;1.456;2023-03-23T08:51:33;8.27;;;7.03;;
15655;SDS011;7928;43.614;1.456;2023-03-23T08:54:02;8.97;;;6.37;;
15655;SDS011;7928;43.614;1.456;2023-03-23T08:56:29;7.47;;;6.40;;
15655;SDS011;7928;43.614;1.456;2023-03-23T08:58:56;8.50;;;5.67;;
15655;SDS011;7928;43.614;1.456;2023-03-23T09:01:24;8.93;;;6.50;;
15655;SDS011;7928;43.614;1.456;2023-03-23T09:03:51;7.30;;;6.13;;
15655;SDS011;7928;43.614;1.456;2023-03-23T09:06:19;8.47;;;6.30;;
15655;SDS011;7928;43.614;1.456;2023-03-23T09:08:46;10.37;;;6.07;;
15655;SDS011;7928;43.614;1.456;2023-03-23T09:11:13;7.37;;;5.87;;
15655;SDS011;7928;43.614;1.456;2023-03-23T09:13:40;7.53;;;6.73;;
15655;SDS011;7928;43.614;1.456;2023-03-23T09:16:08;7.67;;;5.97;;
15655;SDS011;7928;43.614;1.456;2023-03-23T09:18:37;7.90;;;5.70;;
15655;SDS011;7928;43.614;1.456;2023-03-23T09:21:05;9.27;;;6.07;;
15655;SDS011;7928;43.614;1.456;2023-03-23T09:23:33;8.40;;;5.73;;
15655;SDS011;7928;43.614;1.456;2023-03-23T09:26:00;7.23;;;6.00;;
15655;SDS011;7928;43.614;1.456;2023-03-23T09:28:28;7.93;;;5.33;;
15655;SDS011;7928;43.614;1.456;2023-03-23T09:30:56;6.97;;;5.63;;
15655;SDS011;7928;43.614;1.456;2023-03-23T09:33:24;8.80;;;5.50;;
15655;SDS011;7928;43.614;1.456;2023-03-23T09:35:53;8.77;;;6.03;;
15655;SDS011;7928;43.614;1.456;2023-03-23T09:38:20;9.17;;;6.43;;
15655;SDS011;7928;43.614;1.456;2023-03-23T09:40:48;10.60;;;6.07;;
15655;SDS011;7928;43.614;1.456;2023-03-23T09:43:29;8.03;;;5.33;;
15655;SDS011;7928;43.614;1.456;2023-03-23T09:46:10;9.87;;;6.20;;
15655;SDS011;7928;43.614;1.456;2023-03-23T09:48:58;6.83;;;5.37;;
15655;SDS011;7928;43.614;1.456;2023-03-23T09:51:32;6.47;;;5.47;;
15655;SDS011;7928;43.614;1.456;2023-03-23T09:54:09;6.50;;;5.90;;
15655;SDS011;7928;43.614;1.456;2023-03-23T09:56:39;9.60;;;5.10;;
15655;SDS011;7928;43.614;1.456;2023-03-23T09:59:10;10.13;;;5.67;;
15655;SDS011;7928;43.614;1.456;2023-03-23T10:01:43;5.53;;;4.90;;
15655;SDS011;7928;43.614;1.456;2023-03-23T10:04:14;5.73;;;5.00;;
15655;SDS011;7928;43.614;1.456;2023-03-23T10:06:49;5.60;;;4.80;;
15655;SDS011;7928;43.614;1.456;2023-03-23T10:09:16;5.97;;;4.70;;
15655;SDS011;7928;43.614;1.456;2023-03-23T10:11:48;8.27;;;5.17;;
15655;SDS011;7928;43.614;1.456;2023-03-23T10:14:26;5.40;;;4.70;;
15655;SDS011;7928;43.614;1.456;2023-03-23T10:17:00;6.73;;;4.70;;
15655;SDS011;7928;43.614;1.456;2023-03-23T10:19:39;10.50;;;5.03;;
15655;SDS011;7928;43.614;1.456;2023-03-23T10:22:14;5.67;;;3.93;;
15655;SDS011;7928;43.614;1.456;2023-03-23T10:24:47;6.13;;;4.77;;
15655;SDS011;7928;43.614;1.456;2023-03-23T10:27:19;4.93;;;4.50;;
15655;SDS011;7928;43.614;1.456;2023-03-23T10:29:50;6.80;;;4.20;;
15655;SDS011;7928;43.614;1.456;2023-03-23T10:32:34;8.07;;;4.30;;
15655;SDS011;7928;43.614;1.456;2023-03-23T10:35:06;8.00;;;4.40;;
15655;SDS011;7928;43.614;1.456;2023-03-23T10:37:41;4.83;;;3.70;;
15655;SDS011;7928;43.614;1.456;2023-03-23T10:40:13;4.83;;;4.33;;
15655;SDS011;7928;43.614;1.456;2023-03-23T10:42:42;4.97;;;3.93;;
15655;SDS011;7928;43.614;1.456;2023-03-23T10:45:12;5.13;;;4.30;;
15655;SDS011;7928;43.614;1.456;2023-03-23T10:47:44;8.10;;;4.73;;
15655;SDS011;7928;43.614;1.456;2023-03-23T10:50:16;5.50;;;4.80;;
15655;SDS011;7928;43.614;1.456;2023-03-23T10:52:50;5.23;;;4.73;;
15655;SDS011;7928;43.614;1.456;2023-03-23T10:55:19;4.40;;;4.00;;
15655;SDS011;7928;43.614;1.456;2023-03-23T10:57:58;4.70;;;4.30;;
15655;SDS011;7928;43.614;1.456;2023-03-23T11:00:27;5.97;;;4.43;;
15655;SDS011;7928;43.614;1.456;2023-03-23T11:02:59;4.90;;;4.40;;
15655;SDS011;7928;43.614;1.456;2023-03-23T11:05:32;4.87;;;4.47;;
15655;SDS011;7928;43.614;1.456;2023-03-23T11:08:04;6.97;;;5.00;;
15655;SDS011;7928;43.614;1.456;2023-03-23T11:10:39;6.07;;;4.97;;
15655;SDS011;7928;43.614;1.456;2023-03-23T11:13:11;8.03;;;5.00;;
15655;SDS011;7928;43.614;1.456;2023-03-23T11:15:40;10.23;;;4.80;;
15655;SDS011;7928;43.614;1.456;2023-03-23T11:18:10;7.25;;;4.60;;
15655;SDS011;7928;43.614;1.456;2023-03-23T11:20:39;5.93;;;5.07;;
15655;SDS011;7928;43.614;1.456;2023-03-23T11:26:00;6.63;;;4.47;;
15655;SDS011;7928;43.614;1.456;2023-03-23T11:28:32;6.75;;;4.07;;
15655;SDS011;7928;43.614;1.456;2023-03-23T11:31:02;5.03;;;4.22;;
15655;SDS011;7928;43.614;1.456;2023-03-23T11:33:35;5.15;;;4.50;;
15655;SDS011;7928;43.614;1.456;2023-03-23T11:36:05;5.47;;;4.97;;
15655;SDS011;7928;43.614;1.456;2023-03-23T11:38:34;5.78;;;5.07;;
15655;SDS011;7928;43.614;1.456;2023-03-23T11:41:08;7.97;;;5.68;;
15655;SDS011;7928;43.614;1.456;2023-03-23T11:43:39;7.47;;;5.00;;
15655;SDS011;7928;43.614;1.456;2023-03-23T11:46:11;5.75;;;4.72;;
15655;SDS011;7928;43.614;1.456;2023-03-23T11:48:51;5.32;;;4.82;;
15655;SDS011;7928;43.614;1.456;2023-03-23T11:51:24;6.22;;;4.95;;
15655;SDS011;7928;43.614;1.456;2023-03-23T11:53:59;5.50;;;4.88;;
15655;SDS011;7928;43.614;1.456;2023-03-23T11:56:32;4.85;;;4.40;;
15655;SDS011;7928;43.614;1.456;2023-03-23T11:59:01;5.32;;;4.82;;
15655;SDS011;7928;43.614;1.456;2023-03-23T12:01:37;7.35;;;4.90;;
15655;SDS011;7928;43.614;1.456;2023-03-23T12:07:21;6.22;;;5.03;;
15655;SDS011;7928;43.614;1.456;2023-03-23T12:10:00;5.70;;;5.10;;
15655;SDS011;7928;43.614;1.456;2023-03-23T12:12:38;6.45;;;4.97;;
15655;SDS011;7928;43.614;1.456;2023-03-23T12:15:16;5.40;;;4.60;;
15655;SDS011;7928;43.614;1.456;2023-03-23T12:17:51;8.45;;;5.20;;
15655;SDS011;7928;43.614;1.456;2023-03-23T12:20:27;5.63;;;4.57;;
15655;SDS011;7928;43.614;1.456;2023-03-23T12:23:08;7.13;;;5.03;;
15655;SDS011;7928;43.614;1.456;2023-03-23T12:29:02;5.40;;;4.70;;
15655;SDS011;7928;43.614;1.456;2023-03-23T12:31:51;5.00;;;4.53;;
15655;SDS011;7928;43.614;1.456;2023-03-23T12:34:32;4.85;;;4.30;;
15655;SDS011;7928;43.614;1.456;2023-03-23T12:37:14;6.93;;;4.50;;
15655;SDS011;7928;43.614;1.456;2023-03-23T12:40:01;5.10;;;4.60;;
15655;SDS011;7928;43.614;1.456;2023-03-23T12:42:44;6.30;;;4.28;;
15655;SDS011;7928;43.614;1.456;2023-03-23T12:45:24;5.25;;;4.18;;
15655;SDS011;7928;43.614;1.456;2023-03-23T12:48:07;7.20;;;4.72;;
15655;SDS011;7928;43.614;1.456;2023-03-23T12:50:38;7.63;;;4.32;;
15655;SDS011;7928;43.614;1.456;2023-03-23T12:53:11;5.97;;;4.90;;
15655;SDS011;7928;43.614;1.456;2023-03-23T12:55:43;6.55;;;4.40;;
15655;SDS011;7928;43.614;1.456;2023-03-23T12:58:14;6.20;;;4.55;;
15655;SDS011;7928;43.614;1.456;2023-03-23T13:00:55;5.28;;;4.60;;
15655;SDS011;7928;43.614;1.456;2023-03-23T13:03:27;7.53;;;5.25;;
15655;SDS011;7928;43.614;1.456;2023-03-23T13:06:02;7.60;;;5.00;;
15655;SDS011;7928;43.614;1.456;2023-03-23T13:08:33;4.82;;;4.00;;
15655;SDS011;7928;43.614;1.456;2023-03-23T13:11:03;5.22;;;4.20;;
15655;SDS011;7928;43.614;1.456;2023-03-23T13:13:43;5.65;;;4.50;;
15655;SDS011;7928;43.614;1.456;2023-03-23T13:16:18;9.13;;;4.82;;
15655;SDS011;7928;43.614;1.456;2023-03-23T13:18:55;8.80;;;4.72;;
15655;SDS011;7928;43.614;1.456;2023-03-23T13:21:34;7.18;;;4.47;;
15655;SDS011;7928;43.614;1.456;2023-03-23T13:24:09;7.32;;;4.97;;
15655;SDS011;7928;43.614;1.456;2023-03-23T13:26:39;6.07;;;4.75;;
15655;SDS011;7928;43.614;1.456;2023-03-23T13:29:09;9.55;;;4.63;;
15655;SDS011;7928;43.614;1.456;2023-03-23T13:31:41;4.95;;;4.50;;
15655;SDS011;7928;43.614;1.456;2023-03-23T13:34:12;5.07;;;4.55;;
15655;SDS011;7928;43.614;1.456;2023-03-23T13:36:43;6.15;;;4.03;;
15655;SDS011;7928;43.614;1.456;2023-03-23T13:39:18;5.28;;;3.90;;
15655;SDS011;7928;43.614;1.456;2023-03-23T13:41:58;6.68;;;4.50;;
15655;SDS011;7928;43.614;1.456;2023-03-23T13:44:38;5.20;;;4.53;;
15655;SDS011;7928;43.614;1.456;2023-03-23T13:47:16;6.72;;;4.75;;
15655;SDS011;7928;43.614;1.456;2023-03-23T13:49:54;5.88;;;4.05;;
15655;SDS011;7928;43.614;1.456;2023-03-23T13:52:23;8.18;;;4.53;;
15655;SDS011;7928;43.614;1.456;2023-03-23T13:54:52;5.32;;;4.28;;
15655;SDS011;7928;43.614;1.456;2023-03-23T13:57:49;8.85;;;4.38;;
15655;SDS011;7928;43.614;1.456;2023-03-23T14:03:16;7.80;;;4.65;;
15655;SDS011;7928;43.614;1.456;2023-03-23T14:05:50;4.57;;;4.00;;
15655;SDS011;7928;43.614;1.456;2023-03-23T14:08:36;5.57;;;3.80;;
15655;SDS011;7928;43.614;1.456;2023-03-23T14:11:09;6.15;;;4.72;;
15655;SDS011;7928;43.614;1.456;2023-03-23T14:13:41;5.13;;;3.80;;
15655;SDS011;7928;43.614;1.456;2023-03-23T14:16:15;5.55;;;4.10;;
15655;SDS011;7928;43.614;1.456;2023-03-23T14:18:54;4.55;;;3.78;;
15655;SDS011;7928;43.614;1.456;2023-03-23T14:21:33;5.78;;;4.15;;
15655;SDS011;7928;43.614;1.456;2023-03-23T14:24:04;5.65;;;4.03;;
15655;SDS011;7928;43.614;1.456;2023-03-23T14:26:36;5.85;;;4.28;;
15655;SDS011;7928;43.614;1.456;2023-03-23T14:29:04;5.82;;;3.85;;
15655;SDS011;7928;43.614;1.456;2023-03-23T14:31:32;6.63;;;3.72;;
15655;SDS011;7928;43.614;1.456;2023-03-23T14:34:03;7.55;;;3.60;;
15655;SDS011;7928;43.614;1.456;2023-03-23T14:36:38;7.45;;;4.40;;
15655;SDS011;7928;43.614;1.456;2023-03-23T14:39:07;7.63;;;3.80;;
15655;SDS011;7928;43.614;1.456;2023-03-23T14:41:43;7.47;;;4.32;;
15655;SDS011;7928;43.614;1.456;2023-03-23T14:44:12;6.50;;;4.10;;
15655;SDS011;7928;43.614;1.456;2023-03-23T14:46:42;8.63;;;4.77;;
15655;SDS011;7928;43.614;1.456;2023-03-23T14:49:13;5.13;;;4.63;;
15655;SDS011;7928;43.614;1.456;2023-03-23T14:51:46;4.93;;;4.22;;
15655;SDS011;7928;43.614;1.456;2023-03-23T14:54:15;6.77;;;4.77;;
15655;SDS011;7928;43.614;1.456;2023-03-23T14:56:47;6.03;;;4.90;;
15655;SDS011;7928;43.614;1.456;2023-03-23T14:59:14;9.07;;;5.07;;
15655;SDS011;7928;43.614;1.456;2023-03-23T15:01:41;8.10;;;5.10;;
15655;SDS011;7928;43.614;1.456;2023-03-23T15:04:12;7.80;;;4.60;;
15655;SDS011;7928;43.614;1.456;2023-03-23T15:06:42;7.17;;;4.30;;
15655;SDS011;7928;43.614;1.456;2023-03-23T15:09:11;7.73;;;4.67;;
15655;SDS011;7928;43.614;1.456;2023-03-23T15:11:42;7.63;;;5.50;;
15655;SDS011;7928;43.614;1.456;2023-03-23T15:14:10;7.90;;;5.27;;
15655;SDS011;7928;43.614;1.456;2023-03-23T15:16:45;7.57;;;5.40;;
15655;SDS011;7928;43.614;1.456;2023-03-23T15:19:16;7.60;;;5.13;;
15655;SDS011;7928;43.614;1.456;2023-03-23T15:21:46;7.37;;;5.23;;
15655;SDS011;7928;43.614;1.456;2023-03-23T15:24:24;6.20;;;5.57;;
15655;SDS011;7928;43.614;1.456;2023-03-23T15:26:53;8.07;;;5.47;;
15655;SDS011;7928;43.614;1.456;2023-03-23T15:29:28;7.73;;;4.77;;
15655;SDS011;7928;43.614;1.456;2023-03-23T15:31:55;10.13;;;5.03;;
15655;SDS011;7928;43.614;1.456;2023-03-23T15:34:29;7.43;;;4.97;;
15655;SDS011;7928;43.614;1.456;2023-03-23T15:36:59;7.40;;;4.77;;